CheckWX is a tool to help pilots better visualize weather data.  It is not intended as a substitute for an official pre-flight weather briefing.

02:47:01 UTC

CYRJ METAR
Roberval Airport
Roberval, Canada
Current

47 mins ago

CYRJ 050200Z 26005KT 25SM BKN150 BKN220 19/10 A2991 RMK AC7CI1 CI TR SLP131 DENSITY ALT 1200FT
Observed
Jul-5 @ 02:00 UTC
Wind
  • 260° at 5 KTS
Visibility
25 SM
Flight Rules
VFR
Cloud Levels
  • Broken at 15,000' AGL
  • Broken at 22,000' AGL
Temperature
19°C / 66°F
Dewpoint
10°C / 50°F
Humidity
56%
Altimeter
29.91" Hg
Pressure
1012.92 hPa
Previous

2 hours ago

CYRJ 050100Z 26005KT 40SM FEW070 SCT160 BKN180 BKN200 19/12 A2991 RMK AC1AC4AC1CI2 AC TR VIRGA NW SLP132 DENSITY ALT 1300FT
Observed
Jul-5 @ 01:00 UTC
Wind
  • 260° at 5 KTS
Visibility
40 SM
Flight Rules
VFR
Cloud Levels
  • Few at 7,000' AGL
  • Scattered at 16,000' AGL
  • Broken at 18,000' AGL
  • Broken at 20,000' AGL
Temperature
19°C / 66°F
Dewpoint
12°C / 54°F
Humidity
64%
Altimeter
29.91" Hg
Pressure
1012.92 hPa
Previous

3 hours ago

CYRJ 050000Z 25003KT 40SM FEW067 FEW070 SCT150 BKN180 BKN210 21/12 A2991 RMK CU1AC1AC3AC2CI2 CU TR AC TR SLP132 DENSITY ALT 1400FT
Observed
Jul-5 @ 00:00 UTC
Wind
  • 250° at 3 KTS
Visibility
40 SM
Flight Rules
VFR
Cloud Levels
  • Few at 6,700' AGL
  • Few at 7,000' AGL
  • Scattered at 15,000' AGL
  • Broken at 18,000' AGL
Temperature
21°C / 70°F
Dewpoint
12°C / 54°F
Humidity
57%
Altimeter
29.91" Hg
Pressure
1012.92 hPa